Tucumcari ASC

2021-06-24 17:45:00

  • imperial
Date Time Air Temperature Relative Humidity Dewpoint Windchill Heat Index Wind Speed Wind Dir. Rain Solar Radiation Soil Temperature
2m 2m 3m 3m 10cm
US/Mountain F % F F F MPH deg in MJ/m^2 F
max avg avg
2021-06-23 17:55:00 100.9 11.6 38.1 100.9 100.9 10.3 17.2 12.4 170.5 203.3 0.00 0.0477252 103.2
2021-06-23 18:00:00 100.6 11.4 37.4 100.6 100.6 11.0 13.9 9.3 226.8 206.4 0.00 0.0402495 103.1
2021-06-23 18:05:00 100.1 11.4 37.0 100.1 100.1 13.7 18.1 13.3 186.8 204.0 0.00 0.0348149 103.0
2021-06-23 18:10:00 99.7 11.8 37.7 99.7 99.7 11.7 17.1 11.4 186.3 200.3 0.00 0.0327740 102.9
2021-06-23 18:15:00 98.3 12.5 38.1 98.3 98.3 9.7 18.0 14.0 190.2 194.3 0.00 0.0326160 102.7
2021-06-23 18:20:00 98.3 12.4 37.9 98.3 98.3 13.7 16.9 12.9 208.2 203.3 0.00 0.0328682 102.7
2021-06-23 18:25:00 98.4 12.3 37.6 98.4 98.4 9.2 14.4 10.9 176.5 195.1 0.00 0.0492954 102.5
2021-06-23 18:30:00 98.7 12.2 37.8 98.7 98.7 20.1 20.1 12.6 220.6 206.0 0.00 0.0541256 102.4
2021-06-23 18:35:00 98.3 12.1 37.1 98.3 98.3 18.0 23.7 18.0 225.5 230.8 0.00 0.0365730 102.2
2021-06-23 18:40:00 97.9 12.8 38.2 97.9 97.9 21.2 26.4 19.5 216.7 208.1 0.00 0.0655806 102.1
2021-06-23 18:45:00 96.9 13.4 38.6 96.9 96.9 15.1 20.6 15.8 181.6 194.6 0.00 0.0306851 101.9
2021-06-23 18:50:00 96.8 13.1 38.0 96.8 96.8 14.2 17.4 12.6 217.8 199.2 0.00 0.0261814 101.7
2021-06-23 18:55:00 97.4 12.1 36.6 97.4 97.4 11.7 16.7 11.2 173.3 194.9 0.00 0.0257176 101.6
2021-06-23 19:00:00 97.3 13.0 38.3 97.3 97.3 20.8 21.2 15.1 217.7 198.5 0.00 0.0262771 101.4
2021-06-23 19:05:00 96.6 13.6 38.8 96.6 96.6 16.2 18.5 14.7 202.7 207.8 0.00 0.0259889 101.3
2021-06-23 19:10:00 96.7 13.0 37.7 96.7 96.7 19.0 19.0 14.2 172.2 187.8 0.00 0.0227062 101.2
2021-06-23 19:15:00 96.8 12.6 37.1 96.8 96.8 12.2 21.9 14.0 159.7 176.2 0.00 0.0183502 101.0
2021-06-23 19:20:00 96.9 12.3 36.5 96.9 96.9 9.2 14.7 11.4 150.5 163.0 0.00 0.0139266 100.8
2021-06-23 19:25:00 96.7 12.3 36.3 96.7 96.7 10.1 13.7 9.1 186.1 157.1 0.00 0.0091445 100.7
2021-06-23 19:30:00 97.0 12.5 37.1 97.0 97.0 8.0 14.2 11.1 152.4 162.4 0.00 0.0058464 100.5
2021-06-23 19:35:00 96.5 13.0 37.5 96.5 96.5 9.7 11.2 7.9 168.3 175.7 0.00 0.0038273 100.3
2021-06-23 19:40:00 96.3 12.8 37.1 96.3 96.3 8.0 10.3 8.1 159.6 163.3 0.00 0.0031283 100.2
2021-06-23 19:45:00 95.8 13.1 37.3 95.8 95.8 7.1 9.2 7.7 144.6 166.3 0.00 0.0030925 100.0
2021-06-23 19:50:00 95.5 13.4 37.5 95.5 95.5 7.8 10.5 8.6 175.1 172.8 0.00 0.0034040 99.9
2021-06-23 19:55:00 95.2 13.5 37.6 95.2 95.2 7.4 11.2 7.7 164.0 162.2 0.00 0.0028589 99.7
2021-06-23 20:00:00 95.0 13.9 38.2 95.0 95.0 9.2 9.9 7.7 161.0 165.3 0.00 0.0015454 99.5
2021-06-23 20:05:00 95.2 13.5 37.6 95.2 95.2 10.5 16.2 10.3 190.9 170.0 0.00 0.0007018 99.4
2021-06-23 20:10:00 95.9 13.0 37.1 95.9 95.9 15.5 18.0 12.7 179.5 206.0 0.00 0.0001834 99.2
2021-06-23 20:15:00 96.4 13.6 38.7 96.4 96.4 12.8 20.3 12.9 178.9 190.6 0.00 0.0000073 99.1
2021-06-23 20:20:00 96.1 14.5 40.2 96.1 96.1 14.4 17.2 14.2 162.3 185.3 0.00 0.0000000 98.9
2021-06-23 20:25:00 96.2 13.6 38.7 96.2 96.2 11.7 24.4 15.5 189.1 188.2 0.00 0.0000000 98.7
2021-06-23 20:30:00 95.8 14.3 39.4 95.8 95.8 8.5 20.1 15.2 181.8 194.0 0.00 0.0000000 98.6
2021-06-23 20:35:00 96.2 13.4 38.2 96.2 96.2 12.1 18.5 13.9 193.9 191.3 0.00 0.0000000 98.5
2021-06-23 20:40:00 95.7 13.8 38.6 95.7 95.7 9.4 15.8 11.8 179.2 210.4 0.00 0.0000000 98.3
2021-06-23 20:45:00 94.4 15.3 40.2 94.4 94.4 8.5 13.0 9.9 190.4 189.8 0.00 0.0000000 98.1
2021-06-23 20:50:00 93.5 15.9 40.4 93.5 93.5 11.7 11.7 8.7 177.6 188.8 0.00 0.0000000 98.0
2021-06-23 20:55:00 92.4 16.6 40.6 92.4 92.4 8.7 12.4 8.6 146.6 173.2 0.00 0.0000000 97.8
2021-06-23 21:00:00 92.3 16.6 40.7 92.3 92.3 11.3 13.3 9.9 147.4 155.0 0.00 0.0000000 97.7
2021-06-23 21:05:00 92.2 16.9 41.0 92.2 92.2 11.9 13.1 11.2 169.6 159.5 0.00 0.0000000 97.6
2021-06-23 21:10:00 92.1 17.0 41.1 92.1 92.1 9.0 13.7 10.0 161.7 170.1 0.00 0.0000000 97.4
2021-06-23 21:15:00 91.7 17.4 41.3 91.7 91.7 8.7 10.1 7.9 164.7 173.6 0.00 0.0000000 97.2
2021-06-23 21:20:00 91.2 19.6 44.0 91.2 91.2 10.8 13.5 9.6 127.7 157.9 0.00 0.0000000 97.1
2021-06-23 21:25:00 90.4 21.3 45.6 90.4 90.4 10.1 14.6 11.4 127.2 147.2 0.00 0.0000000 97.0
2021-06-23 21:30:00 90.1 21.8 46.0 90.1 90.1 10.3 14.0 11.3 154.0 147.2 0.00 0.0000000 96.8
2021-06-23 21:35:00 89.9 22.2 46.3 89.9 89.9 9.4 14.4 11.7 154.7 158.2 0.00 0.0000000 96.7
2021-06-23 21:40:00 89.3 23.3 47.1 89.3 89.3 10.1 13.7 11.3 150.1 163.9 0.00 0.0000000 96.6
2021-06-23 21:45:00 88.9 24.1 47.6 88.9 88.9 11.5 15.6 12.6 137.9 159.3 0.00 0.0000000 96.4
2021-06-23 21:50:00 88.7 24.7 48.0 88.7 88.7 10.1 15.1 12.2 130.4 158.2 0.00 0.0000000 96.3
2021-06-23 21:55:00 88.1 25.1 48.0 88.1 88.1 10.3 13.3 9.9 146.9 154.3 0.00 0.0000000 96.1
2021-06-23 22:00:00 87.8 25.4 48.0 87.8 87.8 10.8 12.8 9.7 150.0 158.2 0.00 0.0000000 96.0
2021-06-23 22:05:00 87.5 25.5 47.9 87.5 87.5 10.3 11.0 9.2 147.7 171.2 0.00 0.0000000 95.9
2021-06-23 22:10:00 88.4 24.7 47.8 88.4 88.4 9.2 16.2 12.7 170.0 174.6 0.00 0.0000000 95.7
2021-06-23 22:15:00 88.3 25.0 48.0 88.3 88.3 10.1 16.2 9.9 175.1 182.7 0.00 0.0000000 95.5
2021-06-23 22:20:00 88.3 25.1 48.1 88.3 88.3 12.4 17.8 10.9 180.7 184.4 0.00 0.0000000 95.4
2021-06-23 22:25:00 88.3 25.5 48.5 88.3 88.3 18.3 18.3 12.4 206.4 187.7 0.00 0.0000000 95.3
2021-06-23 22:30:00 87.9 25.9 48.7 87.9 87.9 14.6 20.3 15.5 167.0 182.0 0.00 0.0000000 95.2
2021-06-23 22:35:00 87.8 26.0 48.6 87.8 87.8 14.2 20.1 16.1 182.4 185.3 0.00 0.0000000 95.0
2021-06-23 22:40:00 87.5 26.4 48.8 87.5 87.5 16.5 19.8 14.4 187.9 185.7 0.00 0.0000000 94.9
2021-06-23 22:45:00 87.4 26.3 48.7 87.4 87.4 13.3 20.3 15.5 180.5 187.4 0.00 0.0000000 94.7
2021-06-23 22:50:00 87.2 26.6 48.8 87.2 87.2 11.2 18.3 13.0 191.7 187.3 0.00 0.0000000 94.6
2021-06-23 22:55:00 86.8 26.8 48.6 86.8 86.8 12.6 16.4 12.6 195.7 189.1 0.00 0.0000000 94.5
2021-06-23 23:00:00 86.9 26.7 48.6 86.9 86.9 11.9 19.0 13.7 200.3 192.2 0.00 0.0000000 94.3
2021-06-23 23:05:00 87.1 26.6 48.7 87.1 87.1 18.1 18.1 14.3 214.8 200.5 0.00 0.0000000 94.2
2021-06-23 23:10:00 87.2 26.7 48.9 87.2 87.2 11.7 19.4 13.3 184.8 197.8 0.00 0.0000000 94.0
2021-06-23 23:15:00 87.3 26.7 48.9 87.3 87.3 13.1 20.6 13.4 191.6 197.3 0.00 0.0000000 93.9
2021-06-23 23:20:00 87.4 26.4 48.7 87.4 87.4 15.5 18.3 13.8 217.5 196.1 0.00 0.0000000 93.8
2021-06-23 23:25:00 87.7 26.3 48.8 87.7 87.7 12.8 17.8 13.9 198.8 190.3 0.00 0.0000000 93.7
2021-06-23 23:30:00 87.3 26.3 48.6 87.3 87.3 13.5 20.1 12.2 184.3 187.6 0.00 0.0000000 93.6
2021-06-23 23:35:00 87.7 25.6 48.1 87.7 87.7 17.6 21.2 14.8 198.5 194.1 0.00 0.0000000 93.4
2021-06-23 23:40:00 87.7 25.2 47.8 87.7 87.7 14.0 20.3 13.4 208.7 197.8 0.00 0.0000000 93.4
2021-06-23 23:45:00 87.4 25.2 47.5 87.4 87.4 15.5 15.5 11.3 208.2 200.6 0.00 0.0000000 93.2
2021-06-23 23:50:00 87.7 24.7 47.2 87.7 87.7 11.2 17.4 12.4 231.3 207.7 0.00 0.0000000 93.1
2021-06-23 23:55:00 87.5 24.7 47.1 87.5 87.5 9.9 16.9 11.6 216.8 209.6 0.00 0.0000000 93.0
2021-06-24 00:00:00 87.4 24.8 47.0 87.4 87.4 10.3 16.7 11.4 216.4 207.6 0.00 0.0000000 92.9
2021-06-24 00:05:00 87.7 24.8 47.3 87.7 87.7 12.1 19.9 14.8 218.1 212.7 0.00 0.0000000 92.8
2021-06-24 00:10:00 87.4 25.5 47.8 87.4 87.4 16.2 19.9 14.6 212.6 213.3 0.00 0.0000000 92.7
2021-06-24 00:15:00 87.2 26.2 48.3 87.2 87.2 12.4 17.2 12.7 197.7 208.9 0.00 0.0000000 92.6
2021-06-24 00:20:00 87.2 26.7 48.9 87.2 87.2 19.4 19.9 15.8 180.1 199.1 0.00 0.0000000 92.4
2021-06-24 00:25:00 86.9 27.3 49.2 86.9 86.9 16.2 18.3 14.2 193.6 187.4 0.00 0.0000000 92.4
2021-06-24 00:30:00 86.6 28.4 50.0 86.6 86.6 13.0 20.3 14.3 199.7 190.0 0.00 0.0000000 92.3
2021-06-24 00:35:00 86.2 29.5 50.7 86.2 86.2 10.1 18.3 13.8 196.9 195.1 0.00 0.0000000 92.2
2021-06-24 00:40:00 85.9 30.1 51.0 85.9 85.9 11.3 22.1 12.7 191.6 199.2 0.00 0.0000000 92.1
2021-06-24 00:45:00 85.7 30.5 51.2 85.7 85.7 12.1 14.9 11.2 183.9 195.0 0.00 0.0000000 92.0
2021-06-24 00:50:00 85.8 30.7 51.4 85.8 85.8 9.9 20.5 11.9 194.9 198.9 0.00 0.0000000 91.9
2021-06-24 00:55:00 85.7 30.7 51.3 85.7 85.7 12.4 16.7 11.1 217.9 206.5 0.00 0.0000000 91.8
2021-06-24 01:00:00 85.8 30.3 51.1 85.8 85.8 12.2 16.5 11.4 218.5 202.6 0.00 0.0000000 91.7
2021-06-24 01:05:00 85.9 30.1 51.0 85.9 85.9 9.6 16.0 12.3 208.5 214.6 0.00 0.0000000 91.6
2021-06-24 01:10:00 86.2 29.5 50.6 86.2 86.2 12.6 14.2 11.5 223.6 217.6 0.00 0.0000000 91.5
2021-06-24 01:15:00 86.5 29.0 50.4 86.5 86.5 8.7 13.1 10.2 231.9 219.2 0.00 0.0000000 91.5
2021-06-24 01:20:00 86.7 28.5 50.1 86.7 86.7 11.2 14.0 10.3 225.1 227.6 0.00 0.0000000 91.4
2021-06-24 01:25:00 86.9 27.8 49.6 86.9 86.9 13.0 14.2 10.3 213.7 220.8 0.00 0.0000000 91.3
2021-06-24 01:30:00 87.3 26.6 48.8 87.3 87.3 10.1 16.0 11.0 225.8 218.1 0.00 0.0000000 91.2
2021-06-24 01:35:00 87.5 25.2 47.6 87.5 87.5 12.4 16.2 11.9 191.8 213.8 0.00 0.0000000 91.2
2021-06-24 01:40:00 88.0 23.5 46.1 88.0 88.0 12.4 18.1 12.7 227.3 219.6 0.00 0.0000000 91.1
2021-06-24 01:45:00 87.8 22.9 45.3 87.8 87.8 10.1 12.8 9.3 244.6 225.4 0.00 0.0000000 91.0
2021-06-24 01:50:00 87.8 22.6 44.9 87.8 87.8 12.4 13.1 9.8 224.1 230.6 0.00 0.0000000 90.9
2021-06-24 01:55:00 87.3 23.2 45.2 87.3 87.3 11.2 13.5 9.9 228.2 233.6 0.00 0.0000000 90.9
2021-06-24 02:00:00 87.2 22.4 44.3 87.2 87.2 14.6 16.0 11.2 216.8 226.1 0.00 0.0000000 90.8
2021-06-24 02:05:00 88.2 20.8 43.1 88.2 88.2 11.2 17.1 13.2 219.3 213.9 0.00 0.0000000 90.7
2021-06-24 02:10:00 88.2 20.5 42.7 88.2 88.2 13.5 16.0 12.4 217.5 214.0 0.00 0.0000000 90.6
2021-06-24 02:15:00 88.6 20.5 43.0 88.6 88.6 10.3 18.3 13.3 260.7 218.1 0.00 0.0000000 90.5
2021-06-24 02:20:00 88.4 23.7 46.7 88.4 88.4 13.9 17.8 13.6 215.8 213.9 0.00 0.0000000 90.5
2021-06-24 02:25:00 88.2 26.6 49.6 88.2 88.2 13.0 18.5 14.1 218.0 210.7 0.00 0.0000000 90.4
2021-06-24 02:30:00 87.8 28.5 51.1 87.8 87.8 10.6 18.9 12.6 209.0 214.1 0.00 0.0000000 90.3
2021-06-24 02:35:00 87.6 29.6 52.0 87.6 87.6 17.2 19.6 13.4 216.6 214.6 0.00 0.0000000 90.3
2021-06-24 02:40:00 87.6 30.0 52.4 87.6 87.6 16.5 18.5 14.6 209.8 219.5 0.00 0.0000000 90.2
2021-06-24 02:45:00 87.4 30.6 52.7 87.4 87.4 13.7 15.8 12.1 230.6 227.5 0.00 0.0000000 90.2
2021-06-24 02:50:00 87.1 31.0 52.8 87.1 87.1 20.1 20.1 13.2 223.3 234.5 0.00 0.0000000 90.1
2021-06-24 02:55:00 86.8 31.4 53.0 86.8 86.8 12.4 15.3 11.7 202.0 225.5 0.00 0.0000000 90.1
2021-06-24 03:00:00 86.6 32.1 53.3 86.6 86.6 10.8 16.7 13.1 242.1 217.9 0.00 0.0000000 90.0
2021-06-24 03:05:00 86.5 32.3 53.4 86.5 86.5 9.7 15.5 11.8 223.5 230.9 0.00 0.0000000 89.9
2021-06-24 03:10:00 86.4 32.4 53.4 86.4 86.4 12.6 17.1 12.6 240.9 241.5 0.00 0.0000000 89.9
2021-06-24 03:15:00 85.8 32.9 53.3 85.8 85.8 12.6 16.9 13.0 259.2 254.2 0.00 0.0000000 89.8
2021-06-24 03:20:00 85.6 33.0 53.2 85.6 85.6 12.4 16.9 12.8 251.9 248.2 0.00 0.0000000 89.8
2021-06-24 03:25:00 85.2 33.2 53.0 85.2 85.2 11.9 14.9 11.0 241.6 236.7 0.00 0.0000000 89.7
2021-06-24 03:30:00 84.5 33.4 52.6 84.5 84.5 10.3 14.9 11.0 243.9 261.5 0.00 0.0000000 89.7
2021-06-24 03:35:00 84.2 33.2 52.2 84.2 84.2 11.5 12.6 9.9 257.4 258.7 0.00 0.0000000 89.6
2021-06-24 03:40:00 84.6 32.7 52.1 84.6 84.6 11.9 14.7 11.9 225.5 243.9 0.00 0.0000000 89.6
2021-06-24 03:45:00 85.0 32.3 52.1 85.0 85.0 14.7 18.0 13.6 219.0 233.5 0.00 0.0000000 89.5
2021-06-24 03:50:00 84.8 32.4 52.0 84.8 84.8 10.8 17.1 12.4 245.3 231.8 0.00 0.0000000 89.4
2021-06-24 03:55:00 84.0 33.2 52.0 84.0 84.0 9.7 12.6 9.8 257.9 249.9 0.00 0.0000000 89.4
2021-06-24 04:00:00 83.2 34.0 51.9 83.2 83.2 9.9 11.3 9.3 244.4 249.2 0.00 0.0000000 89.3
2021-06-24 04:05:00 83.0 34.3 52.0 83.0 83.0 8.8 11.7 8.3 231.2 228.3 0.00 0.0000000 89.3
2021-06-24 04:10:00 82.9 34.4 52.1 82.9 82.9 9.6 12.4 8.5 220.2 216.9 0.00 0.0000000 89.2
2021-06-24 04:15:00 82.8 34.7 52.1 82.8 82.8 7.8 10.1 7.9 227.1 224.7 0.00 0.0000000 89.1
2021-06-24 04:20:00 82.5 34.9 52.1 82.5 82.5 6.0 10.3 7.3 224.9 221.5 0.00 0.0000000 89.0
2021-06-24 04:25:00 82.4 35.2 52.2 82.4 82.4 8.1 8.8 6.8 210.1 218.1 0.00 0.0000000 89.0
2021-06-24 04:30:00 82.1 35.4 52.1 82.1 82.1 6.0 9.6 7.1 212.4 206.9 0.00 0.0000000 88.9
2021-06-24 04:35:00 82.0 35.9 52.4 82.0 82.0 5.6 8.8 7.0 206.0 203.0 0.00 0.0000000 88.8
2021-06-24 04:40:00 82.0 36.0 52.4 82.0 82.0 7.8 8.7 7.4 205.7 209.5 0.00 0.0000000 88.7
2021-06-24 04:45:00 81.9 36.1 52.4 81.9 81.9 7.6 10.1 7.3 247.3 206.6 0.00 0.0000000 88.7
2021-06-24 04:50:00 82.0 35.9 52.4 82.0 82.0 8.1 9.7 7.8 235.8 207.1 0.00 0.0000000 88.6
2021-06-24 04:55:00 81.7 36.2 52.3 81.7 81.7 8.7 8.8 7.2 199.3 207.9 0.00 0.0000000 88.5
2021-06-24 05:00:00 81.8 36.0 52.3 81.8 81.8 11.5 11.5 7.8 221.6 207.4 0.00 0.0000000 88.4
2021-06-24 05:05:00 81.8 35.8 52.1 81.8 81.8 9.9 9.9 7.9 211.9 206.9 0.00 0.0000000 88.3
2021-06-24 05:10:00 81.9 35.6 52.1 81.9 81.9 8.0 10.5 8.1 192.8 203.2 0.00 0.0000000 88.2
2021-06-24 05:15:00 81.3 36.2 51.9 81.3 81.3 4.0 8.7 5.5 192.2 202.0 0.00 0.0000000 88.2
2021-06-24 05:20:00 80.4 37.4 52.0 80.4 80.4 4.0 6.0 4.5 212.8 213.6 0.00 0.0000000 88.1
2021-06-24 05:25:00 80.1 37.7 52.0 80.1 80.1 6.3 8.1 5.5 228.6 213.9 0.00 0.0000000 88.0
2021-06-24 05:30:00 80.7 36.7 51.8 80.7 80.7 6.9 8.1 6.3 263.5 231.6 0.00 0.0000000 87.9
2021-06-24 05:35:00 79.7 37.7 51.6 79.7 79.7 7.6 7.6 6.2 277.9 258.1 0.00 0.0000000 87.8
2021-06-24 05:40:00 78.7 38.3 51.2 78.7 78.7 4.6 6.9 5.3 262.3 269.7 0.00 0.0000000 87.7
2021-06-24 05:45:00 78.5 38.9 51.4 78.5 78.5 4.7 6.3 5.0 312.6 298.9 0.00 0.0003488 87.7
2021-06-24 05:50:00 77.9 39.5 51.3 77.9 77.9 2.8 4.6 3.6 305.4 323.6 0.00 0.0016896 87.6
2021-06-24 05:55:00 78.3 39.1 51.3 78.3 78.3 4.2 4.4 3.5 243.9 262.5 0.00 0.0067496 87.5
2021-06-24 06:00:00 78.5 38.6 51.2 78.5 78.5 4.7 5.8 4.3 227.0 224.6 0.00 0.0090488 87.4
2021-06-24 06:05:00 78.5 38.7 51.3 78.5 78.5 3.3 4.7 3.8 223.1 211.9 0.00 0.0117750 87.4
2021-06-24 06:10:00 78.7 38.6 51.4 78.7 78.7 3.3 4.0 3.3 212.5 220.6 0.00 0.0125406 87.3
2021-06-24 06:15:00 79.1 38.1 51.4 79.1 79.1 4.7 5.8 4.5 223.0 221.5 0.00 0.0158465 87.2
2021-06-24 06:20:00 79.7 37.2 51.3 79.7 79.7 5.3 6.7 4.9 256.9 231.9 0.00 0.0199129 87.2
2021-06-24 06:25:00 80.0 36.6 51.1 80.0 80.0 6.2 7.6 5.4 233.5 242.6 0.00 0.0156277 87.1
2021-06-24 06:30:00 80.0 36.4 50.9 80.0 80.0 4.9 6.3 5.2 250.6 243.9 0.00 0.0085868 87.0
2021-06-24 06:35:00 79.9 35.9 50.5 79.9 79.9 4.0 6.9 5.3 250.2 244.4 0.00 0.0076118 87.0
2021-06-24 06:40:00 79.9 35.7 50.3 79.9 79.9 4.9 5.8 4.7 254.5 249.6 0.00 0.0069537 86.9
2021-06-24 06:45:00 79.7 35.5 50.0 79.7 79.7 4.6 5.6 4.3 258.7 252.9 0.00 0.0084233 86.9
2021-06-24 06:50:00 79.6 35.1 49.6 79.6 79.6 4.6 7.1 5.5 249.2 257.3 0.00 0.0103555 86.8
2021-06-24 06:55:00 79.6 34.1 48.9 79.6 79.6 5.1 6.3 5.4 250.8 250.6 0.00 0.0131600 86.8
2021-06-24 07:00:00 79.8 33.1 48.2 79.8 79.8 5.8 7.1 5.7 258.4 252.8 0.00 0.0163601 86.7
2021-06-24 07:05:00 79.9 32.6 47.9 79.9 79.9 6.2 7.2 5.9 251.4 251.5 0.00 0.0191936 86.7
2021-06-24 07:10:00 79.8 32.8 48.0 79.8 79.8 4.4 6.5 5.1 245.6 256.7 0.00 0.0214671 86.6
2021-06-24 07:15:00 79.8 32.4 47.7 79.8 79.8 5.8 5.8 4.4 252.3 248.6 0.00 0.0239771 86.6
2021-06-24 07:20:00 79.8 32.2 47.5 79.8 79.8 3.1 5.8 4.7 280.6 257.9 0.00 0.0272263 86.6
2021-06-24 07:25:00 80.0 32.3 47.8 80.0 80.0 4.2 4.9 3.9 255.6 268.4 0.00 0.0314554 86.5
2021-06-24 07:30:00 79.9 32.5 47.9 79.9 79.9 3.3 4.4 3.7 260.1 247.3 0.00 0.0365773 86.5
2021-06-24 07:35:00 80.1 32.0 47.6 80.1 80.1 3.7 4.2 3.1 206.8 227.9 0.00 0.0338044 86.5
2021-06-24 07:40:00 80.3 31.4 47.3 80.3 80.3 2.4 4.4 3.2 201.3 230.5 0.00 0.0361585 86.5
2021-06-24 07:45:00 80.5 30.8 46.9 80.5 80.5 4.9 5.1 3.2 215.6 232.4 0.00 0.0402095 86.5
2021-06-24 07:50:00 80.6 30.6 46.8 80.6 80.6 4.2 5.6 4.4 229.1 230.2 0.00 0.0387616 86.4
2021-06-24 07:55:00 80.7 30.2 46.6 80.7 80.7 3.0 5.6 3.7 217.9 222.1 0.00 0.0401559 86.4
2021-06-24 08:00:00 81.1 30.2 46.8 81.1 81.1 2.8 4.2 3.0 199.8 194.6 0.00 0.0402776 86.4
2021-06-24 08:05:00 80.9 30.0 46.5 80.9 80.9 3.1 5.1 3.8 212.9 205.6 0.00 0.0428310 86.4
2021-06-24 08:10:00 81.3 30.4 47.3 81.3 81.3 2.2 4.6 3.3 173.4 199.6 0.00 0.0616809 86.4
2021-06-24 08:15:00 82.5 29.3 47.3 82.5 82.5 1.9 3.1 1.8 255.4 195.8 0.00 0.1125202 86.5
2021-06-24 08:20:00 83.1 28.0 46.7 83.1 83.1 2.4 4.0 2.6 219.8 209.7 0.00 0.1348313 86.5
2021-06-24 08:25:00 83.8 27.4 46.6 83.8 83.8 2.6 4.4 3.1 190.6 223.2 0.00 0.1190474 86.5
2021-06-24 08:30:00 83.4 27.1 46.0 83.4 83.4 3.0 5.5 3.9 199.7 215.9 0.00 0.0757027 86.5
2021-06-24 08:35:00 83.5 27.0 46.0 83.5 83.5 3.7 4.7 3.4 213.3 230.0 0.00 0.0675604 86.6
2021-06-24 08:40:00 83.5 27.0 46.0 83.5 83.5 2.8 4.9 3.3 236.5 262.2 0.00 0.0632425 86.7
2021-06-24 08:45:00 83.8 26.0 45.2 83.8 83.8 1.9 4.4 2.7 241.6 264.1 0.00 0.0584595 86.7
2021-06-24 08:50:00 83.9 26.2 45.5 83.9 83.9 3.3 3.7 2.6 258.0 257.4 0.00 0.0566719 86.8
2021-06-24 08:55:00 84.0 26.3 45.7 84.0 84.0 5.6 5.6 3.7 246.8 270.5 0.00 0.0658790 86.9
2021-06-24 09:00:00 84.4 26.3 46.1 84.4 84.4 4.4 6.3 4.1 216.2 239.1 0.00 0.0924451 87.0
2021-06-24 09:05:00 84.6 26.2 46.1 84.6 84.6 3.1 5.3 3.8 247.8 238.0 0.00 0.1005892 87.1
2021-06-24 09:10:00 85.3 25.1 45.6 85.3 85.3 4.9 5.6 4.1 260.6 291.1 0.00 0.1389911 87.2
2021-06-24 09:15:00 85.0 24.6 44.8 85.0 85.0 3.3 6.7 4.3 251.3 269.8 0.00 0.1027873 87.2
2021-06-24 09:20:00 85.2 25.3 45.7 85.2 85.2 5.3 6.2 4.4 306.3 289.6 0.00 0.1178861 87.3
2021-06-24 09:25:00 85.7 24.6 45.4 85.7 85.7 3.7 5.3 3.8 335.4 307.6 0.00 0.1043764 87.4
2021-06-24 09:30:00 85.6 24.6 45.3 85.6 85.6 3.5 5.5 3.7 268.1 278.6 0.00 0.1219502 87.5
2021-06-24 09:35:00 85.6 24.6 45.4 85.6 85.6 3.8 4.9 3.7 319.2 271.3 0.00 0.1147587 87.7
2021-06-24 09:40:00 85.9 24.5 45.4 85.9 85.9 2.4 5.3 3.6 324.0 295.3 0.00 0.1216490 87.8
2021-06-24 09:45:00 86.8 23.6 45.2 86.8 86.8 2.6 4.4 2.6 266.6 260.0 0.00 0.1289017 87.9
2021-06-24 09:50:00 86.7 23.4 44.9 86.7 86.7 3.8 4.6 3.0 223.9 256.7 0.00 0.1341905 88.1
2021-06-24 09:55:00 87.5 23.1 45.3 87.5 87.5 3.0 4.4 2.7 247.6 247.0 0.00 0.1554619 88.2
2021-06-24 10:00:00 87.4 23.1 45.1 87.4 87.4 3.7 4.7 3.4 235.0 247.7 0.00 0.1898211 88.3
2021-06-24 10:05:00 87.5 23.0 45.1 87.5 87.5 3.5 5.3 3.2 205.6 227.7 0.00 0.1966631 88.5
2021-06-24 10:10:00 88.8 22.5 45.6 88.8 88.8 4.2 5.3 2.5 77.1 130.1 0.00 0.1810401 88.7
2021-06-24 10:15:00 89.3 21.6 45.0 89.3 89.3 4.7 6.5 4.3 312.4 347.6 0.00 0.2061451 88.8
2021-06-24 10:20:00 89.4 21.2 44.6 89.4 89.4 2.6 5.8 4.1 42.9 7.9 0.00 0.2343699 89.1
2021-06-24 10:25:00 89.4 21.3 44.8 89.4 89.4 1.5 5.6 3.4 116.7 71.1 0.00 0.2363691 89.3
2021-06-24 10:30:00 90.0 20.9 44.6 90.0 90.0 4.7 6.3 4.0 23.0 318.4 0.00 0.2006120 89.5
2021-06-24 10:35:00 90.6 20.6 44.8 90.6 90.6 1.3 8.1 4.6 174.7 58.8 0.00 0.2748751 89.8
2021-06-24 10:40:00 90.3 20.8 44.9 90.3 90.3 4.9 8.5 4.4 304.2 328.4 0.00 0.1734739 90.0
2021-06-24 10:45:00 90.9 20.2 44.6 90.9 90.9 3.0 7.2 3.9 347.1 322.0 0.00 0.2493273 90.3
2021-06-24 10:50:00 91.2 20.2 44.8 91.2 91.2 4.6 5.6 3.0 64.5 336.3 0.00 0.2360273 90.6
2021-06-24 10:55:00 91.0 19.8 44.0 91.0 91.0 5.5 6.7 3.8 185.5 113.7 0.00 0.2447796 90.9
2021-06-24 11:00:00 91.3 19.9 44.5 91.3 91.3 3.0 6.5 4.0 104.7 159.3 0.00 0.3232577 91.2
2021-06-24 11:05:00 92.0 19.3 44.2 92.0 92.0 6.0 6.5 4.2 28.4 53.3 0.00 0.2758359 91.5
2021-06-24 11:10:00 90.8 20.1 44.3 90.8 90.8 3.7 6.9 4.7 81.0 27.7 0.00 0.1838394 91.8
2021-06-24 11:15:00 91.5 19.7 44.3 91.5 91.5 4.2 4.6 2.8 65.7 70.5 0.00 0.2603466 92.1
2021-06-24 11:20:00 93.0 18.9 44.6 93.0 93.0 1.2 5.1 2.8 54.6 56.0 0.00 0.3197746 92.5
2021-06-24 11:25:00 93.8 18.4 44.4 93.8 93.8 3.5 4.6 2.3 236.4 193.2 0.00 0.3288918 92.8
2021-06-24 11:30:00 93.8 18.7 44.9 93.8 93.8 7.8 7.8 4.2 97.5 48.8 0.00 0.2630177 93.1
2021-06-24 11:35:00 92.9 18.8 44.3 92.9 92.9 3.8 9.0 5.7 121.7 120.5 0.00 0.3332580 93.5
2021-06-24 11:40:00 92.7 19.0 44.5 92.7 92.7 3.0 8.5 4.3 274.1 3.2 0.00 0.1982182 93.8
2021-06-24 11:45:00 92.9 19.0 44.5 92.9 92.9 3.3 6.2 4.2 92.9 323.1 0.00 0.2466298 94.2
2021-06-24 11:50:00 93.0 19.0 44.6 93.0 93.0 5.6 7.8 4.8 144.8 117.7 0.00 0.1884364 94.6
2021-06-24 11:55:00 91.6 19.4 44.0 91.6 91.6 2.8 9.9 6.3 214.5 170.3 0.00 0.1742313 94.9
2021-06-24 12:00:00 91.7 19.6 44.4 91.7 91.7 0.0 6.3 2.5 166.2 179.7 0.00 0.1676639 95.2
2021-06-24 12:05:00 92.2 19.6 44.8 92.2 92.2 8.3 8.3 4.1 198.2 219.9 0.00 0.2409982 95.5
2021-06-24 12:10:00 94.1 18.9 45.4 94.1 94.1 5.8 10.8 6.5 100.0 118.0 0.00 0.3269526 95.8
2021-06-24 12:15:00 93.5 19.2 45.3 93.5 93.5 4.7 9.9 6.7 77.8 107.7 0.00 0.3185841 96.1
2021-06-24 12:20:00 93.7 19.0 45.3 93.7 93.7 6.2 11.2 7.3 37.2 59.7 0.00 0.3142069 96.4
2021-06-24 12:25:00 94.3 18.8 45.4 94.3 94.3 10.6 11.0 5.6 141.0 96.8 0.00 0.3157210 96.6
2021-06-24 12:30:00 94.2 18.8 45.3 94.2 94.2 7.8 11.9 8.8 122.3 134.3 0.00 0.3188681 96.9
2021-06-24 12:35:00 94.0 18.7 45.1 94.0 94.0 5.6 9.9 6.5 142.9 119.0 0.00 0.3202969 97.1
2021-06-24 12:40:00 94.5 18.7 45.4 94.5 94.5 2.1 9.6 5.1 4.9 102.8 0.00 0.3046654 97.4
2021-06-24 12:45:00 95.7 18.2 45.7 95.7 95.7 11.0 11.0 6.7 101.3 145.6 0.00 0.3204640 97.7
2021-06-24 12:50:00 95.3 17.7 44.6 95.3 95.3 6.3 11.5 8.4 114.1 110.9 0.00 0.3264516 98.1
2021-06-24 12:55:00 95.5 17.7 44.8 95.5 95.5 11.0 11.2 6.5 144.8 111.8 0.00 0.3091100 98.4
2021-06-24 13:00:00 94.1 18.4 44.7 94.1 94.1 5.5 12.6 7.7 160.8 174.9 0.00 0.3133603 98.7
2021-06-24 13:05:00 94.7 18.1 44.7 94.7 94.7 5.6 9.9 6.5 91.3 132.0 0.00 0.3093557 99.1
2021-06-24 13:10:00 95.6 17.5 44.6 95.6 95.6 5.5 9.7 6.1 83.7 97.6 0.00 0.3384066 99.4
2021-06-24 13:15:00 95.2 17.5 44.3 95.2 95.2 8.3 13.0 7.2 84.7 81.7 0.00 0.3498959 99.7
2021-06-24 13:20:00 96.7 16.9 44.5 96.7 96.7 10.1 13.9 8.6 120.7 91.8 0.00 0.3577689 100.0
2021-06-24 13:25:00 96.6 16.9 44.5 96.6 96.6 4.9 10.6 6.2 115.0 102.5 0.00 0.3443586 100.3
2021-06-24 13:30:00 96.2 17.0 44.4 96.2 96.2 6.0 13.7 9.4 135.2 121.3 0.00 0.3436424 100.7
2021-06-24 13:35:00 95.4 17.1 43.8 95.4 95.4 6.2 12.6 8.3 136.5 123.6 0.00 0.2347054 101.0
2021-06-24 13:40:00 95.6 16.9 43.6 95.6 95.6 10.1 12.2 8.5 107.1 128.6 0.00 0.2929295 101.3
2021-06-24 13:45:00 95.2 17.1 43.8 95.2 95.2 6.0 11.5 8.4 115.9 129.2 0.00 0.2056397 101.6
2021-06-24 13:50:00 94.9 17.5 44.0 94.9 94.9 5.3 10.3 6.2 132.0 125.5 0.00 0.1560241 101.9
2021-06-24 13:55:00 96.4 16.7 43.9 96.4 96.4 3.3 5.8 4.2 215.5 131.9 0.00 0.2257566 102.2
2021-06-24 14:00:00 97.7 16.2 44.3 97.7 97.7 10.5 10.5 5.1 172.2 157.1 0.00 0.3163626 102.4
2021-06-24 14:05:00 96.7 16.8 44.4 96.7 96.7 7.4 10.8 6.9 149.0 177.6 0.00 0.3469881 102.6
2021-06-24 14:10:00 97.0 16.5 44.2 97.0 97.0 5.8 9.7 5.7 84.2 129.9 0.00 0.3265039 102.7
2021-06-24 14:15:00 97.2 16.4 44.2 97.2 97.2 6.2 10.8 6.7 55.8 89.4 0.00 0.2809706 102.9
2021-06-24 14:20:00 97.3 16.7 44.7 97.3 97.3 6.9 11.3 6.2 111.7 88.8 0.00 0.2617835 103.0
2021-06-24 14:25:00 96.9 16.4 43.9 96.9 96.9 5.6 11.0 7.8 179.2 123.3 0.00 0.2034127 103.2
2021-06-24 14:30:00 96.2 16.8 44.0 96.2 96.2 5.6 9.7 5.9 86.2 121.2 0.00 0.1353608 103.4
2021-06-24 14:35:00 96.2 16.8 44.0 96.2 96.2 10.6 12.6 10.0 144.4 138.0 0.00 0.1914036 103.5
2021-06-24 14:40:00 95.9 17.0 44.1 95.9 95.9 3.1 12.4 7.1 191.9 154.8 0.00 0.2406542 103.7
2021-06-24 14:45:00 97.3 16.5 44.4 97.3 97.3 8.1 8.1 5.1 141.5 178.6 0.00 0.3148924 103.8
2021-06-24 14:50:00 98.1 16.2 44.6 98.1 98.1 2.6 8.8 4.5 182.4 138.7 0.00 0.2902071 103.9
2021-06-24 14:55:00 98.3 16.4 45.0 98.3 98.3 9.2 12.1 6.8 130.7 134.0 0.00 0.2847638 104.1
2021-06-24 15:00:00 99.2 16.0 45.2 99.2 99.2 7.4 8.7 5.4 153.1 121.4 0.00 0.2734656 104.2
2021-06-24 15:05:00 98.3 16.4 45.1 98.3 98.3 3.8 11.9 7.8 158.0 124.3 0.00 0.2772068 104.3
2021-06-24 15:10:00 98.6 16.4 45.3 98.6 98.6 16.9 16.9 9.2 141.0 132.7 0.00 0.1854692 104.5
2021-06-24 15:15:00 98.6 16.0 44.7 98.6 98.6 9.4 16.5 12.5 139.7 140.3 0.00 0.2911895 104.6
2021-06-24 15:20:00 98.8 15.7 44.4 98.8 98.8 6.9 11.2 8.6 170.9 137.7 0.00 0.2931060 104.7
2021-06-24 15:25:00 99.6 16.0 45.4 99.6 99.6 9.6 14.0 6.9 135.0 134.7 0.00 0.2909880 104.9
2021-06-24 15:30:00 98.7 16.2 45.1 98.7 98.7 11.7 16.2 9.0 166.6 128.2 0.00 0.2853506 105.1
2021-06-24 15:35:00 98.1 16.1 44.4 98.1 98.1 4.0 12.1 7.9 182.6 174.4 0.00 0.1025982 105.2
2021-06-24 15:40:00 97.3 16.4 44.3 97.3 97.3 3.7 11.5 6.2 168.7 161.3 0.00 0.0634648 105.3
2021-06-24 15:45:00 97.3 16.5 44.5 97.3 97.3 5.1 9.7 7.2 171.2 176.8 0.00 0.0616079 105.4
2021-06-24 15:50:00 97.5 16.5 44.6 97.5 97.5 5.6 9.6 6.8 167.3 176.5 0.00 0.0569702 105.5
2021-06-24 15:55:00 97.4 15.8 43.3 97.4 97.4 6.5 11.0 8.1 191.5 201.8 0.00 0.0608422 105.5
2021-06-24 16:00:00 97.3 15.6 42.9 97.3 97.3 6.0 11.7 6.7 220.1 203.0 0.00 0.0703327 105.5
2021-06-24 16:05:00 97.5 15.4 42.8 97.5 97.5 5.5 7.2 5.3 211.7 230.8 0.00 0.0802641 105.4
2021-06-24 16:10:00 97.8 15.7 43.5 97.8 97.8 8.0 10.1 5.7 248.9 222.9 0.00 0.0825537 105.4
2021-06-24 16:15:00 97.8 15.7 43.6 97.8 97.8 9.4 9.4 6.3 246.8 248.2 0.00 0.0743058 105.3
2021-06-24 16:20:00 97.2 16.1 43.7 97.2 97.2 4.9 8.8 5.4 254.5 250.2 0.00 0.0595152 105.2
2021-06-24 16:25:00 96.3 16.7 44.0 96.3 96.3 3.1 10.1 5.7 0.1 319.7 0.00 0.0482291 105.0
2021-06-24 16:30:00 96.9 15.8 43.0 96.9 96.9 9.2 9.9 7.0 297.0 295.0 0.00 0.0431701 104.9
2021-06-24 16:35:00 97.5 16.1 43.8 97.5 97.5 10.5 11.2 8.8 313.3 299.6 0.00 0.1008341 104.7
2021-06-24 16:40:00 96.4 19.6 48.2 96.4 96.4 21.2 24.2 13.4 298.8 303.0 0.00 0.2264394 104.6
2021-06-24 16:45:00 93.6 20.2 46.8 93.6 93.6 8.7 21.7 13.5 8.9 327.6 0.00 0.1649294 104.4
2021-06-24 16:50:00 93.8 23.1 50.6 93.8 93.8 3.1 9.4 5.9 305.2 7.1 0.00 0.0822845 104.3
2021-06-24 16:55:00 95.3 19.8 47.6 95.3 95.3 5.5 6.9 3.4 131.5 107.1 0.00 0.1786478 104.1
2021-06-24 17:00:00 94.7 19.0 46.1 94.7 94.7 5.5 7.4 5.2 113.0 173.8 0.00 0.2298016 103.9
2021-06-24 17:05:00 91.1 32.3 57.4 91.1 91.1 10.8 16.4 9.9 121.2 113.4 0.00 0.1507381 103.8
2021-06-24 17:10:00 88.1 30.7 53.4 88.1 88.1 7.2 14.2 10.0 123.7 133.7 0.00 0.0454651 103.6
2021-06-24 17:15:00 87.6 28.8 51.2 87.6 87.6 10.6 15.1 10.7 105.2 117.8 0.00 0.0480303 103.5
2021-06-24 17:20:00 87.9 29.0 51.7 87.9 87.9 7.1 9.9 7.5 116.3 107.7 0.00 0.0339402 103.3
2021-06-24 17:25:00 88.2 28.0 50.9 88.2 88.2 5.6 9.2 6.9 126.3 123.2 0.00 0.0212525 103.0
2021-06-24 17:30:00 88.4 29.2 52.3 88.4 88.4 6.7 8.1 5.4 145.8 146.4 0.00 0.0373363 102.8
2021-06-24 17:35:00 87.3 29.7 51.7 87.3 87.3 12.8 14.2 11.1 171.3 168.0 0.00 0.0207611 102.5
2021-06-24 17:40:00 87.9 25.2 47.9 87.9 87.9 10.3 17.4 12.0 165.7 180.1 0.00 0.0144943 102.2
2021-06-24 17:45:00 87.0 27.6 49.6 87.0 87.0 11.2 17.1 12.3 179.8 172.1 0.00 0.0150278 101.9

Data is courtesy of the NM Climate Center. DO NOT USE IN LEGAL PROCEEDINGS.